Moyer Aviation Incorporated

Pocono Mountains Airport

188 Airport Drive. Tobyhanna, PA 18466 

P: 570-839-7161
800-321-5890
F: 570-839-7162

Weather

Weather

Pocono Weather

KMPO 160653Z AUTO 06011G21KT 10SM -RA BKN028 BKN034 OVC060 02/00 A3000 RMK AO2 RAE00B38UPB36E38 SLP173 P0001 T00220000

Allentown Weather

KABE 160651Z 06015KT 8SM -RA BKN035 OVC080 06/02 A3001 RMK AO2 SLP164 P0002 T00610022

Wilkes-Barre Weather

KAVP 160654Z 07009G17KT 10SM -RA OVC075 04/02 A3003 RMK AO2 SLP174 P0002 T00440017


* required field

Contact Us